Главная страница
METAR-TAF:

METAR-TAF

Аэропорты :

Энугу, Нигерия

широта: 06-28N, долгота: 007-33E, высота над уровнем моря: 137 м

Текущие метеонаблюдения

Эта сводка был подготовлена 5 часа и 5 минут назад, в 22:00 UTC
Ветер 4 Узел от южный-юго-западный
Температура 27°C
Влажность 89%
Давление 1012 hPa
Видимость 10 км и более
Отдельные облака на высоте 1100 фута

METAR: DNEN 232200Z 21004KT 9999 SCT011 27/25 Q1012 NOSIG

Время: 04:05 (03:05 UTC)


TAF: отсутствует

Метеонаблюдения и прогнозы для более 4000 аэропортов (сводки METAR и TAF).

Имеющиеся станции представлены на карте желтыми и красными точками.

Чтобы увидеть название станции, наведите на нее мышь.

Затем щелкните, чтобы увидеть метеонаблюдения и метеопрогнозы.

Управление картой: чтобы увеличить масштаб, щелкните зеленые кнопки с черным крестиком; чтобы уменьшить масштаб, щелкните зеленую кнопку с тире; для просмотра соседних карт щелкайте зеленые стрелки.


METAR-TAF: